createdAt,value
2022-09-28T16:13:24.141Z,63.89
2022-09-28T16:16:00.023Z,63.73
2022-09-28T16:18:32.603Z,63.69
2022-09-28T16:21:34.286Z,63.95
2022-09-28T16:24:03.451Z,64.42
2022-09-28T16:26:37.504Z,64.07
2022-09-28T16:29:28.841Z,64.48
2022-09-28T16:31:57.614Z,64.34
2022-09-28T16:34:28.899Z,64.53
2022-09-28T16:36:57.776Z,64.45
2022-09-28T16:39:26.256Z,64.33
2022-09-28T16:42:01.948Z,64.46
2022-09-28T16:44:35.117Z,64.77
2022-09-28T16:47:04.333Z,64.35
2022-09-28T16:49:33.388Z,64.79
2022-09-28T16:52:02.529Z,64.36
2022-09-28T16:54:48.327Z,64.73
2022-09-28T16:57:17.548Z,64.46
2022-09-28T16:59:47.548Z,64.64
2022-09-28T17:05:10.390Z,64.60
2022-09-28T17:15:56.294Z,51.41
2022-09-28T17:18:25.405Z,56.59
2022-09-28T17:20:58.091Z,62.36
2022-09-28T17:23:27.195Z,68.17
2022-09-28T17:25:55.995Z,73.28
2022-09-28T17:28:29.912Z,76.73
2022-09-28T17:31:00.300Z,79.33
2022-09-28T17:33:29.389Z,81.29
2022-09-28T17:36:04.827Z,83.27
2022-09-28T17:38:34.681Z,85.72
2022-09-28T17:41:03.532Z,88.02
2022-09-28T17:43:32.487Z,90.79
2022-09-28T17:46:03.791Z,95.36
2022-09-28T17:48:34.566Z,99.89
2022-09-28T17:51:03.973Z,100.00
2022-09-28T17:53:32.839Z,100.00
2022-09-28T17:56:01.804Z,100.00
2022-09-28T17:58:30.383Z,100.00
2022-09-28T18:00:59.125Z,100.00
2022-09-28T18:03:29.233Z,100.00
2022-09-28T18:06:04.578Z,100.00
2022-09-28T18:08:33.857Z,100.00
2022-09-28T18:11:03.056Z,100.00
2022-09-28T18:13:31.908Z,100.00
2022-09-28T18:16:01.160Z,100.00
2022-09-28T18:18:33.650Z,100.00
2022-09-28T18:21:02.891Z,100.00
2022-09-28T18:23:31.683Z,100.00
2022-09-28T18:26:00.581Z,100.00
2022-09-28T18:28:29.703Z,100.00
2022-09-28T18:30:59.029Z,100.00
2022-09-28T18:33:27.713Z,100.00
2022-09-28T18:35:58.074Z,100.00
2022-09-28T18:38:26.845Z,100.00
2022-09-28T18:40:56.663Z,100.00
2022-09-28T18:43:25.473Z,100.00
2022-09-28T18:45:56.269Z,100.00
2022-09-28T18:48:28.198Z,100.00
2022-09-28T18:50:59.823Z,100.00
2022-09-28T18:53:29.160Z,100.00
2022-09-28T18:56:00.159Z,100.00
2022-09-28T18:58:28.952Z,100.00
2022-09-28T19:01:13.556Z,100.00
2022-09-28T19:03:47.047Z,100.00
2022-09-28T19:06:18.703Z,100.00
2022-09-28T19:08:54.091Z,100.00
2022-09-28T19:11:23.854Z,100.00
2022-09-28T19:13:56.386Z,100.00
2022-09-28T19:16:26.422Z,100.00
2022-09-28T19:18:57.198Z,100.00
2022-09-28T19:21:28.186Z,100.00
2022-09-28T19:23:57.296Z,100.00
2022-09-28T19:26:29.255Z,100.00
2022-09-28T19:28:59.832Z,100.00
2022-09-28T19:31:29.676Z,100.00
2022-09-28T19:33:58.520Z,100.00
2022-09-28T19:36:29.943Z,100.00
2022-09-28T19:39:03.340Z,100.00
2022-09-28T19:41:43.525Z,100.00
2022-09-28T19:44:24.864Z,100.00
2022-09-28T19:46:57.542Z,100.00
2022-09-28T19:49:33.142Z,100.00
2022-09-28T19:52:13.727Z,100.00
2022-09-28T19:54:45.069Z,100.00
2022-09-28T19:57:16.260Z,100.00
2022-09-28T19:59:49.465Z,100.00
2022-09-28T20:02:21.585Z,100.00
2022-09-28T20:04:50.421Z,100.00
2022-09-28T20:07:20.845Z,100.00
2022-09-28T20:09:49.522Z,100.00
2022-09-28T20:12:18.293Z,100.00
2022-09-28T20:14:47.144Z,100.00
2022-09-28T20:17:15.926Z,100.00
2022-09-28T20:19:44.660Z,100.00
2022-09-28T20:22:13.471Z,100.00
2022-09-28T20:24:43.636Z,100.00
2022-09-28T20:27:12.675Z,100.00
2022-09-28T20:29:43.181Z,100.00
2022-09-28T20:32:12.454Z,100.00
2022-09-28T20:34:41.157Z,100.00
2022-09-28T20:37:09.873Z,100.00
2022-09-28T20:39:41.559Z,100.00
2022-09-28T20:42:15.929Z,100.00
2022-09-28T20:44:45.081Z,100.00
2022-09-28T20:47:13.781Z,100.00
2022-09-28T20:49:42.576Z,100.00
2022-09-28T20:52:11.319Z,100.00
2022-09-28T20:54:40.226Z,100.00
2022-09-28T20:57:17.758Z,100.00
2022-09-28T20:59:53.800Z,100.00
2022-09-28T21:02:23.865Z,100.00
2022-09-28T21:04:52.699Z,100.00
2022-09-28T21:07:21.484Z,100.00
2022-09-28T21:09:50.673Z,100.00
2022-09-28T21:12:19.599Z,100.00
2022-09-28T21:14:49.765Z,100.00
2022-09-28T21:17:18.527Z,100.00
2022-09-28T21:19:47.532Z,100.00
2022-09-28T21:22:16.160Z,100.00
2022-09-28T21:24:44.950Z,100.00
2022-09-28T21:27:13.695Z,100.00
2022-09-28T21:29:42.520Z,100.00
2022-09-28T21:32:12.812Z,100.00
2022-09-28T21:34:41.610Z,100.00
2022-09-28T21:37:10.434Z,100.00
2022-09-28T21:39:39.181Z,100.00
2022-09-28T21:42:08.276Z,100.00
2022-09-28T21:44:37.382Z,100.00
2022-09-28T21:47:06.351Z,100.00
2022-09-28T21:49:36.469Z,100.00
2022-09-28T21:52:05.417Z,100.00
2022-09-28T21:54:37.378Z,100.00
2022-09-28T21:57:06.532Z,100.00
2022-09-28T21:59:35.376Z,100.00
2022-09-28T22:02:05.909Z,100.00
2022-09-28T22:04:36.501Z,100.00
2022-09-28T22:07:05.333Z,100.00
2022-09-28T22:09:34.112Z,100.00
2022-09-28T22:12:03.307Z,100.00
2022-09-28T22:14:32.117Z,100.00
2022-09-28T22:17:00.802Z,100.00
2022-09-28T22:19:29.774Z,100.00
2022-09-28T22:21:59.942Z,100.00
2022-09-28T22:24:28.890Z,100.00
2022-09-28T22:26:57.676Z,100.00
2022-09-28T22:29:26.534Z,100.00
2022-09-28T22:32:00.235Z,100.00
2022-09-28T22:34:30.979Z,100.00
2022-09-28T22:37:03.100Z,100.00
2022-09-28T22:39:36.687Z,100.00
2022-09-28T22:42:06.609Z,100.00
2022-09-28T22:44:37.841Z,100.00
2022-09-28T22:47:07.073Z,100.00
2022-09-28T22:49:35.830Z,100.00
2022-09-28T22:52:06.542Z,100.00
2022-09-28T22:54:35.438Z,100.00
2022-09-28T22:57:04.509Z,100.00
2022-09-28T22:59:33.494Z,100.00
2022-09-28T23:02:02.234Z,100.00
2022-09-28T23:04:32.095Z,100.00
2022-09-28T23:07:01.008Z,100.00
2022-09-28T23:09:31.204Z,100.00
2022-09-28T23:12:00.116Z,100.00
2022-09-28T23:14:29.093Z,100.00
2022-09-28T23:16:57.985Z,100.00
2022-09-28T23:19:26.804Z,100.00
2022-09-28T23:21:55.387Z,100.00
2022-09-28T23:24:24.135Z,100.00
2022-09-28T23:26:54.370Z,100.00
2022-09-28T23:29:23.375Z,100.00
2022-09-28T23:31:55.255Z,100.00
2022-09-28T23:34:23.947Z,100.00
2022-09-28T23:36:54.631Z,100.00
2022-09-28T23:39:23.230Z,100.00
2022-09-28T23:41:53.986Z,100.00
2022-09-28T23:44:23.196Z,100.00
2022-09-28T23:46:54.867Z,100.00
2022-09-28T23:49:23.541Z,100.00
2022-09-28T23:51:52.585Z,100.00
2022-09-28T23:54:21.234Z,100.00
2022-09-28T23:56:49.975Z,100.00
2022-09-28T23:59:20.286Z,100.00
